Terminal Aerodrome Forecast
Issued by NWS

Home | Current Version | Previous Version | Text Only | Print | Product List | Glossary Off
Versions: 1 2 3 4 5 6 7 8 9 10 11 12 13 14 15 16 17 18 19 20 21 22 23 24 25 26 27 28

000
FTUS43 KABR 262000 AAA
TAFPIR
TAF AMD
KPIR 262029Z 2620/2718 05006KT P6SM BKN020 OVC035
     FM270300 12007KT P6SM SCT040 BKN150
     FM271500 15013KT 4SM -RASN OVC030=

USA.gov is the U.S. government's official web portal to all federal, state and local government web resources and services.